sensor_id;sensor_type;location;lat;lon;timestamp;P1;durP1;ratioP1;P2;durP2;ratioP2
59418;SDS011;45224;50.904;6.038;2023-02-18T00:00:48;14.40;;;8.63;;
59418;SDS011;45224;50.904;6.038;2023-02-18T00:02:18;13.10;;;8.77;;
59418;SDS011;45224;50.904;6.038;2023-02-18T00:03:49;12.53;;;7.57;;
59418;SDS011;45224;50.904;6.038;2023-02-18T00:05:20;11.95;;;8.27;;
59418;SDS011;45224;50.904;6.038;2023-02-18T00:06:51;12.10;;;7.50;;
59418;SDS011;45224;50.904;6.038;2023-02-18T00:08:22;12.03;;;7.77;;
59418;SDS011;45224;50.904;6.038;2023-02-18T00:09:52;11.57;;;7.63;;
59418;SDS011;45224;50.904;6.038;2023-02-18T00:11:23;11.57;;;7.70;;
59418;SDS011;45224;50.904;6.038;2023-02-18T00:12:54;11.30;;;7.40;;
59418;SDS011;45224;50.904;6.038;2023-02-18T00:14:24;10.00;;;6.70;;
59418;SDS011;45224;50.904;6.038;2023-02-18T00:15:59;11.83;;;7.10;;
59418;SDS011;45224;50.904;6.038;2023-02-18T00:17:33;10.07;;;7.03;;
59418;SDS011;45224;50.904;6.038;2023-02-18T00:19:05;10.20;;;7.28;;
59418;SDS011;45224;50.904;6.038;2023-02-18T00:20:38;10.75;;;7.32;;
59418;SDS011;45224;50.904;6.038;2023-02-18T00:22:09;10.63;;;6.85;;
59418;SDS011;45224;50.904;6.038;2023-02-18T00:23:39;11.57;;;6.87;;
59418;SDS011;45224;50.904;6.038;2023-02-18T00:25:10;14.20;;;7.55;;
59418;SDS011;45224;50.904;6.038;2023-02-18T00:26:41;11.70;;;6.50;;
59418;SDS011;45224;50.904;6.038;2023-02-18T00:28:12;9.68;;;7.00;;
59418;SDS011;45224;50.904;6.038;2023-02-18T00:29:42;8.93;;;6.27;;
59418;SDS011;45224;50.904;6.038;2023-02-18T00:31:17;9.68;;;6.80;;
59418;SDS011;45224;50.904;6.038;2023-02-18T00:32:49;9.07;;;6.30;;
59418;SDS011;45224;50.904;6.038;2023-02-18T00:34:19;13.38;;;6.43;;
59418;SDS011;45224;50.904;6.038;2023-02-18T00:35:50;9.63;;;6.23;;
59418;SDS011;45224;50.904;6.038;2023-02-18T00:37:20;11.97;;;7.07;;
59418;SDS011;45224;50.904;6.038;2023-02-18T00:38:52;10.70;;;6.93;;
59418;SDS011;45224;50.904;6.038;2023-02-18T00:40:24;9.63;;;6.30;;
59418;SDS011;45224;50.904;6.038;2023-02-18T00:43:26;10.65;;;6.95;;
59418;SDS011;45224;50.904;6.038;2023-02-18T00:44:57;10.88;;;6.93;;
59418;SDS011;45224;50.904;6.038;2023-02-18T00:46:27;9.33;;;6.43;;
59418;SDS011;45224;50.904;6.038;2023-02-18T00:47:58;12.88;;;6.25;;
59418;SDS011;45224;50.904;6.038;2023-02-18T00:49:29;10.30;;;6.10;;
59418;SDS011;45224;50.904;6.038;2023-02-18T00:51:00;9.27;;;6.18;;
59418;SDS011;45224;50.904;6.038;2023-02-18T00:52:32;10.07;;;6.50;;
59418;SDS011;45224;50.904;6.038;2023-02-18T00:54:04;10.55;;;6.40;;
59418;SDS011;45224;50.904;6.038;2023-02-18T00:55:41;11.45;;;6.18;;
59418;SDS011;45224;50.904;6.038;2023-02-18T00:57:13;9.40;;;6.35;;
59418;SDS011;45224;50.904;6.038;2023-02-18T00:58:43;10.83;;;6.73;;
59418;SDS011;45224;50.904;6.038;2023-02-18T01:00:14;9.03;;;6.13;;
59418;SDS011;45224;50.904;6.038;2023-02-18T01:01:45;12.32;;;6.63;;
59418;SDS011;45224;50.904;6.038;2023-02-18T01:03:15;9.50;;;6.07;;
59418;SDS011;45224;50.904;6.038;2023-02-18T01:04:46;8.77;;;5.65;;
59418;SDS011;45224;50.904;6.038;2023-02-18T01:06:17;8.40;;;5.87;;
59418;SDS011;45224;50.904;6.038;2023-02-18T01:07:48;9.00;;;6.15;;
59418;SDS011;45224;50.904;6.038;2023-02-18T01:09:19;8.50;;;6.07;;
59418;SDS011;45224;50.904;6.038;2023-02-18T01:10:51;8.90;;;5.80;;
59418;SDS011;45224;50.904;6.038;2023-02-18T01:12:23;10.40;;;5.95;;
59418;SDS011;45224;50.904;6.038;2023-02-18T01:13:53;9.07;;;6.17;;
59418;SDS011;45224;50.904;6.038;2023-02-18T01:15:25;11.75;;;6.40;;
59418;SDS011;45224;50.904;6.038;2023-02-18T01:16:55;8.80;;;5.87;;
59418;SDS011;45224;50.904;6.038;2023-02-18T01:18:26;10.17;;;6.07;;
59418;SDS011;45224;50.904;6.038;2023-02-18T01:19:56;9.10;;;5.70;;
59418;SDS011;45224;50.904;6.038;2023-02-18T01:21:27;9.18;;;6.18;;
59418;SDS011;45224;50.904;6.038;2023-02-18T01:22:58;8.53;;;5.77;;
59418;SDS011;45224;50.904;6.038;2023-02-18T01:24:28;10.67;;;6.10;;
59418;SDS011;45224;50.904;6.038;2023-02-18T01:25:59;11.97;;;6.47;;
59418;SDS011;45224;50.904;6.038;2023-02-18T01:27:29;10.83;;;6.33;;
59418;SDS011;45224;50.904;6.038;2023-02-18T01:29:00;11.77;;;6.90;;
59418;SDS011;45224;50.904;6.038;2023-02-18T01:30:30;9.80;;;6.07;;
59418;SDS011;45224;50.904;6.038;2023-02-18T01:32:01;10.03;;;6.23;;
59418;SDS011;45224;50.904;6.038;2023-02-18T01:33:31;9.03;;;6.13;;
59418;SDS011;45224;50.904;6.038;2023-02-18T01:35:05;11.32;;;6.45;;
59418;SDS011;45224;50.904;6.038;2023-02-18T01:36:36;9.52;;;5.97;;
59418;SDS011;45224;50.904;6.038;2023-02-18T01:38:07;12.70;;;6.17;;
59418;SDS011;45224;50.904;6.038;2023-02-18T01:39:38;7.68;;;5.60;;
59418;SDS011;45224;50.904;6.038;2023-02-18T01:41:09;10.57;;;6.70;;
59418;SDS011;45224;50.904;6.038;2023-02-18T01:42:40;9.90;;;5.63;;
59418;SDS011;45224;50.904;6.038;2023-02-18T01:44:16;8.82;;;5.47;;
59418;SDS011;45224;50.904;6.038;2023-02-18T01:45:51;8.65;;;5.80;;
59418;SDS011;45224;50.904;6.038;2023-02-18T01:47:30;8.02;;;5.10;;
59418;SDS011;45224;50.904;6.038;2023-02-18T01:49:00;8.40;;;5.07;;
59418;SDS011;45224;50.904;6.038;2023-02-18T01:50:32;7.80;;;5.35;;
59418;SDS011;45224;50.904;6.038;2023-02-18T01:52:09;7.07;;;4.82;;
59418;SDS011;45224;50.904;6.038;2023-02-18T01:55:34;7.75;;;5.35;;
59418;SDS011;45224;50.904;6.038;2023-02-18T01:57:09;9.52;;;4.78;;
59418;SDS011;45224;50.904;6.038;2023-02-18T01:58:43;8.93;;;4.80;;
59418;SDS011;45224;50.904;6.038;2023-02-18T02:00:16;8.23;;;4.75;;
59418;SDS011;45224;50.904;6.038;2023-02-18T02:01:50;6.32;;;4.40;;
59418;SDS011;45224;50.904;6.038;2023-02-18T02:03:22;8.13;;;5.07;;
59418;SDS011;45224;50.904;6.038;2023-02-18T02:04:53;6.27;;;4.50;;
59418;SDS011;45224;50.904;6.038;2023-02-18T02:06:24;7.60;;;5.03;;
59418;SDS011;45224;50.904;6.038;2023-02-18T02:07:54;8.30;;;5.00;;
59418;SDS011;45224;50.904;6.038;2023-02-18T02:09:25;5.87;;;4.47;;
59418;SDS011;45224;50.904;6.038;2023-02-18T02:11:05;5.85;;;4.35;;
59418;SDS011;45224;50.904;6.038;2023-02-18T02:16:51;9.23;;;5.70;;
59418;SDS011;45224;50.904;6.038;2023-02-18T02:22:39;8.73;;;5.90;;
59418;SDS011;45224;50.904;6.038;2023-02-18T02:36:55;7.55;;;4.80;;
59418;SDS011;45224;50.904;6.038;2023-02-18T02:40:24;9.23;;;5.45;;
59418;SDS011;45224;50.904;6.038;2023-02-18T02:44:01;9.82;;;5.57;;
59418;SDS011;45224;50.904;6.038;2023-02-18T02:45:44;10.43;;;5.18;;
59418;SDS011;45224;50.904;6.038;2023-02-18T02:47:20;8.80;;;5.53;;
59418;SDS011;45224;50.904;6.038;2023-02-18T02:49:02;9.48;;;5.28;;
59418;SDS011;45224;50.904;6.038;2023-02-18T02:52:51;16.63;;;5.65;;
59418;SDS011;45224;50.904;6.038;2023-02-18T02:54:26;10.15;;;5.30;;
59418;SDS011;45224;50.904;6.038;2023-02-18T02:55:59;8.40;;;4.90;;
59418;SDS011;45224;50.904;6.038;2023-02-18T02:59:23;7.30;;;4.75;;
59418;SDS011;45224;50.904;6.038;2023-02-18T03:10:07;7.55;;;4.75;;
59418;SDS011;45224;50.904;6.038;2023-02-18T03:11:57;6.35;;;3.58;;
59418;SDS011;45224;50.904;6.038;2023-02-18T03:14:24;7.30;;;3.75;;
59418;SDS011;45224;50.904;6.038;2023-02-18T03:15:44;6.03;;;3.53;;
59418;SDS011;45224;50.904;6.038;2023-02-18T03:17:23;5.03;;;3.30;;
59418;SDS011;45224;50.904;6.038;2023-02-18T03:19:05;7.03;;;3.60;;
59418;SDS011;45224;50.904;6.038;2023-02-18T03:20:49;7.57;;;3.92;;
59418;SDS011;45224;50.904;6.038;2023-02-18T03:22:33;5.63;;;3.50;;
59418;SDS011;45224;50.904;6.038;2023-02-18T03:24:15;5.65;;;3.55;;
59418;SDS011;45224;50.904;6.038;2023-02-18T03:25:51;5.20;;;3.38;;
59418;SDS011;45224;50.904;6.038;2023-02-18T03:27:32;5.43;;;3.45;;
59418;SDS011;45224;50.904;6.038;2023-02-18T03:29:07;4.57;;;3.03;;
59418;SDS011;45224;50.904;6.038;2023-02-18T03:30:48;4.43;;;3.30;;
59418;SDS011;45224;50.904;6.038;2023-02-18T03:32:22;4.78;;;3.10;;
59418;SDS011;45224;50.904;6.038;2023-02-18T03:33:56;4.88;;;3.20;;
59418;SDS011;45224;50.904;6.038;2023-02-18T03:35:31;4.07;;;3.13;;
59418;SDS011;45224;50.904;6.038;2023-02-18T03:37:05;5.05;;;3.30;;
59418;SDS011;45224;50.904;6.038;2023-02-18T03:38:43;4.70;;;3.10;;
59418;SDS011;45224;50.904;6.038;2023-02-18T03:40:27;4.57;;;3.10;;
59418;SDS011;45224;50.904;6.038;2023-02-18T03:41:58;5.70;;;3.72;;
59418;SDS011;45224;50.904;6.038;2023-02-18T03:43:29;4.30;;;3.30;;
59418;SDS011;45224;50.904;6.038;2023-02-18T03:45:00;6.10;;;3.83;;
59418;SDS011;45224;50.904;6.038;2023-02-18T03:46:31;5.60;;;3.33;;
59418;SDS011;45224;50.904;6.038;2023-02-18T03:48:03;5.78;;;3.50;;
59418;SDS011;45224;50.904;6.038;2023-02-18T03:49:34;6.32;;;4.15;;
59418;SDS011;45224;50.904;6.038;2023-02-18T03:51:04;6.57;;;3.85;;
59418;SDS011;45224;50.904;6.038;2023-02-18T03:52:35;5.47;;;3.40;;
59418;SDS011;45224;50.904;6.038;2023-02-18T03:54:05;8.23;;;3.63;;
59418;SDS011;45224;50.904;6.038;2023-02-18T03:55:36;5.47;;;3.40;;
59418;SDS011;45224;50.904;6.038;2023-02-18T03:57:07;5.67;;;3.57;;
59418;SDS011;45224;50.904;6.038;2023-02-18T03:58:37;5.37;;;3.50;;
59418;SDS011;45224;50.904;6.038;2023-02-18T04:00:08;7.55;;;3.72;;
59418;SDS011;45224;50.904;6.038;2023-02-18T04:01:46;7.28;;;3.70;;
59418;SDS011;45224;50.904;6.038;2023-02-18T04:03:16;7.00;;;3.93;;
59418;SDS011;45224;50.904;6.038;2023-02-18T04:04:47;6.43;;;3.73;;
59418;SDS011;45224;50.904;6.038;2023-02-18T04:06:17;6.60;;;3.80;;
59418;SDS011;45224;50.904;6.038;2023-02-18T04:07:48;6.70;;;4.03;;
59418;SDS011;45224;50.904;6.038;2023-02-18T04:09:18;6.03;;;4.00;;
59418;SDS011;45224;50.904;6.038;2023-02-18T04:10:49;5.65;;;3.78;;
59418;SDS011;45224;50.904;6.038;2023-02-18T04:12:20;5.40;;;3.65;;
59418;SDS011;45224;50.904;6.038;2023-02-18T04:13:50;7.37;;;3.87;;
59418;SDS011;45224;50.904;6.038;2023-02-18T04:15:21;5.30;;;3.77;;
59418;SDS011;45224;50.904;6.038;2023-02-18T04:16:51;6.03;;;3.87;;
59418;SDS011;45224;50.904;6.038;2023-02-18T04:18:22;5.80;;;3.33;;
59418;SDS011;45224;50.904;6.038;2023-02-18T04:19:52;5.38;;;3.45;;
59418;SDS011;45224;50.904;6.038;2023-02-18T04:21:24;4.73;;;3.27;;
59418;SDS011;45224;50.904;6.038;2023-02-18T04:22:55;4.63;;;3.47;;
59418;SDS011;45224;50.904;6.038;2023-02-18T04:24:25;6.93;;;3.27;;
59418;SDS011;45224;50.904;6.038;2023-02-18T04:25:56;5.73;;;3.20;;
59418;SDS011;45224;50.904;6.038;2023-02-18T04:27:26;5.10;;;3.63;;
59418;SDS011;45224;50.904;6.038;2023-02-18T04:28:57;5.50;;;2.67;;
59418;SDS011;45224;50.904;6.038;2023-02-18T04:30:27;5.20;;;3.20;;
59418;SDS011;45224;50.904;6.038;2023-02-18T04:31:58;5.63;;;3.10;;
59418;SDS011;45224;50.904;6.038;2023-02-18T04:33:29;4.63;;;3.30;;
59418;SDS011;45224;50.904;6.038;2023-02-18T04:34:59;5.05;;;3.20;;
59418;SDS011;45224;50.904;6.038;2023-02-18T04:36:30;5.33;;;3.23;;
59418;SDS011;45224;50.904;6.038;2023-02-18T04:38:00;6.03;;;3.88;;
59418;SDS011;45224;50.904;6.038;2023-02-18T04:39:31;5.35;;;3.70;;
59418;SDS011;45224;50.904;6.038;2023-02-18T04:41:01;6.07;;;3.67;;
59418;SDS011;45224;50.904;6.038;2023-02-18T04:42:32;6.10;;;4.10;;
59418;SDS011;45224;50.904;6.038;2023-02-18T04:44:02;5.63;;;3.93;;
59418;SDS011;45224;50.904;6.038;2023-02-18T04:45:33;5.93;;;3.80;;
59418;SDS011;45224;50.904;6.038;2023-02-18T04:47:04;6.40;;;3.90;;
59418;SDS011;45224;50.904;6.038;2023-02-18T04:48:36;5.68;;;3.50;;
59418;SDS011;45224;50.904;6.038;2023-02-18T04:50:06;5.67;;;4.10;;
59418;SDS011;45224;50.904;6.038;2023-02-18T04:51:37;6.55;;;3.67;;
59418;SDS011;45224;50.904;6.038;2023-02-18T04:53:08;6.00;;;3.70;;
59418;SDS011;45224;50.904;6.038;2023-02-18T04:54:38;5.90;;;3.93;;
59418;SDS011;45224;50.904;6.038;2023-02-18T04:56:09;7.53;;;4.30;;
59418;SDS011;45224;50.904;6.038;2023-02-18T04:57:39;6.33;;;3.60;;
59418;SDS011;45224;50.904;6.038;2023-02-18T04:59:10;4.90;;;3.60;;
59418;SDS011;45224;50.904;6.038;2023-02-18T05:00:40;5.83;;;3.60;;
59418;SDS011;45224;50.904;6.038;2023-02-18T05:02:11;5.20;;;3.20;;
59418;SDS011;45224;50.904;6.038;2023-02-18T05:03:41;5.33;;;3.60;;
59418;SDS011;45224;50.904;6.038;2023-02-18T05:05:15;4.45;;;3.20;;
59418;SDS011;45224;50.904;6.038;2023-02-18T05:06:45;4.40;;;2.92;;
59418;SDS011;45224;50.904;6.038;2023-02-18T05:08:16;4.60;;;3.00;;
59418;SDS011;45224;50.904;6.038;2023-02-18T05:09:48;4.40;;;2.90;;
59418;SDS011;45224;50.904;6.038;2023-02-18T05:11:18;4.57;;;3.10;;
59418;SDS011;45224;50.904;6.038;2023-02-18T05:12:49;4.63;;;3.30;;
59418;SDS011;45224;50.904;6.038;2023-02-18T05:14:19;4.97;;;2.80;;
59418;SDS011;45224;50.904;6.038;2023-02-18T05:15:51;4.63;;;3.20;;
59418;SDS011;45224;50.904;6.038;2023-02-18T05:17:21;4.47;;;2.63;;
59418;SDS011;45224;50.904;6.038;2023-02-18T05:18:52;4.73;;;2.57;;
59418;SDS011;45224;50.904;6.038;2023-02-18T05:20:22;3.60;;;2.73;;
59418;SDS011;45224;50.904;6.038;2023-02-18T05:21:53;2.53;;;1.93;;
59418;SDS011;45224;50.904;6.038;2023-02-18T05:23:23;3.47;;;2.57;;
59418;SDS011;45224;50.904;6.038;2023-02-18T05:24:55;3.17;;;2.00;;
59418;SDS011;45224;50.904;6.038;2023-02-18T05:26:25;3.10;;;2.40;;
59418;SDS011;45224;50.904;6.038;2023-02-18T05:27:56;3.10;;;2.20;;
59418;SDS011;45224;50.904;6.038;2023-02-18T05:29:26;3.13;;;2.40;;
59418;SDS011;45224;50.904;6.038;2023-02-18T05:30:57;3.60;;;2.40;;
59418;SDS011;45224;50.904;6.038;2023-02-18T05:32:27;3.35;;;2.10;;
59418;SDS011;45224;50.904;6.038;2023-02-18T05:33:58;3.00;;;2.10;;
59418;SDS011;45224;50.904;6.038;2023-02-18T05:35:28;3.37;;;2.20;;
59418;SDS011;45224;50.904;6.038;2023-02-18T05:36:59;5.55;;;2.20;;
59418;SDS011;45224;50.904;6.038;2023-02-18T05:38:29;3.47;;;2.20;;
59418;SDS011;45224;50.904;6.038;2023-02-18T05:40:00;3.17;;;1.80;;
59418;SDS011;45224;50.904;6.038;2023-02-18T05:41:30;3.75;;;1.50;;
59418;SDS011;45224;50.904;6.038;2023-02-18T05:43:01;2.45;;;1.77;;
59418;SDS011;45224;50.904;6.038;2023-02-18T05:44:32;2.43;;;1.87;;
59418;SDS011;45224;50.904;6.038;2023-02-18T05:46:03;2.65;;;2.08;;
59418;SDS011;45224;50.904;6.038;2023-02-18T05:47:33;1.98;;;1.63;;
59418;SDS011;45224;50.904;6.038;2023-02-18T05:49:04;2.33;;;1.90;;
59418;SDS011;45224;50.904;6.038;2023-02-18T05:50:34;3.03;;;2.00;;
59418;SDS011;45224;50.904;6.038;2023-02-18T05:52:05;2.50;;;1.80;;
59418;SDS011;45224;50.904;6.038;2023-02-18T05:53:36;3.03;;;2.22;;
59418;SDS011;45224;50.904;6.038;2023-02-18T05:55:06;2.20;;;1.80;;
59418;SDS011;45224;50.904;6.038;2023-02-18T05:56:37;3.00;;;1.80;;
59418;SDS011;45224;50.904;6.038;2023-02-18T05:58:07;5.37;;;1.90;;
59418;SDS011;45224;50.904;6.038;2023-02-18T05:59:38;2.43;;;1.60;;
59418;SDS011;45224;50.904;6.038;2023-02-18T06:01:08;2.93;;;1.80;;
59418;SDS011;45224;50.904;6.038;2023-02-18T06:02:39;2.40;;;1.73;;
59418;SDS011;45224;50.904;6.038;2023-02-18T06:04:10;2.60;;;1.80;;
59418;SDS011;45224;50.904;6.038;2023-02-18T06:05:40;2.28;;;1.75;;
59418;SDS011;45224;50.904;6.038;2023-02-18T06:07:11;2.20;;;1.60;;
59418;SDS011;45224;50.904;6.038;2023-02-18T06:08:41;2.47;;;1.90;;
59418;SDS011;45224;50.904;6.038;2023-02-18T06:10:12;3.30;;;1.93;;
59418;SDS011;45224;50.904;6.038;2023-02-18T06:11:42;2.63;;;1.93;;
59418;SDS011;45224;50.904;6.038;2023-02-18T06:13:13;3.13;;;2.03;;
59418;SDS011;45224;50.904;6.038;2023-02-18T06:14:43;2.53;;;1.70;;
59418;SDS011;45224;50.904;6.038;2023-02-18T06:16:14;3.23;;;1.73;;
59418;SDS011;45224;50.904;6.038;2023-02-18T06:17:44;2.87;;;1.70;;
59418;SDS011;45224;50.904;6.038;2023-02-18T06:19:15;2.80;;;1.83;;
59418;SDS011;45224;50.904;6.038;2023-02-18T06:20:46;3.97;;;1.90;;
59418;SDS011;45224;50.904;6.038;2023-02-18T06:22:17;2.70;;;1.83;;
59418;SDS011;45224;50.904;6.038;2023-02-18T06:23:48;2.57;;;1.60;;
59418;SDS011;45224;50.904;6.038;2023-02-18T06:25:18;2.27;;;1.67;;
59418;SDS011;45224;50.904;6.038;2023-02-18T06:26:49;2.70;;;1.57;;
59418;SDS011;45224;50.904;6.038;2023-02-18T06:28:19;2.10;;;1.67;;
59418;SDS011;45224;50.904;6.038;2023-02-18T06:29:50;2.95;;;1.73;;
59418;SDS011;45224;50.904;6.038;2023-02-18T06:31:21;3.53;;;1.73;;
59418;SDS011;45224;50.904;6.038;2023-02-18T06:32:51;3.53;;;1.83;;
59418;SDS011;45224;50.904;6.038;2023-02-18T06:34:22;2.20;;;1.57;;
59418;SDS011;45224;50.904;6.038;2023-02-18T06:37:25;1.95;;;1.60;;
59418;SDS011;45224;50.904;6.038;2023-02-18T06:38:55;2.50;;;1.80;;
59418;SDS011;45224;50.904;6.038;2023-02-18T06:40:26;1.80;;;1.50;;
59418;SDS011;45224;50.904;6.038;2023-02-18T06:41:57;2.15;;;1.60;;
59418;SDS011;45224;50.904;6.038;2023-02-18T06:43:27;2.43;;;1.80;;
59418;SDS011;45224;50.904;6.038;2023-02-18T06:44:58;2.38;;;1.75;;
59418;SDS011;45224;50.904;6.038;2023-02-18T06:46:29;2.37;;;1.60;;
59418;SDS011;45224;50.904;6.038;2023-02-18T06:47:59;2.27;;;1.43;;
59418;SDS011;45224;50.904;6.038;2023-02-18T06:49:30;2.90;;;1.97;;
59418;SDS011;45224;50.904;6.038;2023-02-18T06:51:00;2.57;;;1.77;;
59418;SDS011;45224;50.904;6.038;2023-02-18T06:52:31;4.50;;;2.20;;
59418;SDS011;45224;50.904;6.038;2023-02-18T06:54:03;2.47;;;1.90;;
59418;SDS011;45224;50.904;6.038;2023-02-18T06:57:05;2.63;;;1.90;;
59418;SDS011;45224;50.904;6.038;2023-02-18T06:58:36;3.37;;;1.70;;
59418;SDS011;45224;50.904;6.038;2023-02-18T07:00:07;2.00;;;1.48;;
59418;SDS011;45224;50.904;6.038;2023-02-18T07:01:38;2.33;;;1.70;;
59418;SDS011;45224;50.904;6.038;2023-02-18T07:03:09;1.80;;;1.43;;
59418;SDS011;45224;50.904;6.038;2023-02-18T07:04:42;2.58;;;1.50;;
59418;SDS011;45224;50.904;6.038;2023-02-18T07:06:14;1.98;;;1.38;;
59418;SDS011;45224;50.904;6.038;2023-02-18T07:07:45;2.33;;;1.40;;
59418;SDS011;45224;50.904;6.038;2023-02-18T07:09:15;2.00;;;1.50;;
59418;SDS011;45224;50.904;6.038;2023-02-18T07:10:46;2.53;;;1.60;;
59418;SDS011;45224;50.904;6.038;2023-02-18T07:12:17;1.73;;;1.20;;
59418;SDS011;45224;50.904;6.038;2023-02-18T07:13:47;2.37;;;1.30;;
59418;SDS011;45224;50.904;6.038;2023-02-18T07:15:18;2.77;;;1.70;;
59418;SDS011;45224;50.904;6.038;2023-02-18T07:16:53;2.10;;;1.30;;
59418;SDS011;45224;50.904;6.038;2023-02-18T07:18:23;2.60;;;1.40;;
59418;SDS011;45224;50.904;6.038;2023-02-18T07:19:54;4.57;;;1.60;;
59418;SDS011;45224;50.904;6.038;2023-02-18T07:21:25;4.40;;;1.40;;
59418;SDS011;45224;50.904;6.038;2023-02-18T07:22:55;3.10;;;1.63;;
59418;SDS011;45224;50.904;6.038;2023-02-18T07:24:26;2.47;;;1.60;;
59418;SDS011;45224;50.904;6.038;2023-02-18T07:26:06;5.50;;;1.83;;
59418;SDS011;45224;50.904;6.038;2023-02-18T07:27:41;6.97;;;2.25;;
59418;SDS011;45224;50.904;6.038;2023-02-18T07:29:11;4.50;;;2.00;;
59418;SDS011;45224;50.904;6.038;2023-02-18T07:30:42;5.83;;;2.03;;
59418;SDS011;45224;50.904;6.038;2023-02-18T07:32:13;5.93;;;1.97;;
59418;SDS011;45224;50.904;6.038;2023-02-18T07:33:44;8.75;;;2.45;;
59418;SDS011;45224;50.904;6.038;2023-02-18T07:35:15;5.85;;;2.22;;
59418;SDS011;45224;50.904;6.038;2023-02-18T07:36:46;5.07;;;1.95;;
59418;SDS011;45224;50.904;6.038;2023-02-18T07:38:17;6.60;;;2.27;;
59418;SDS011;45224;50.904;6.038;2023-02-18T07:39:47;8.37;;;2.00;;
59418;SDS011;45224;50.904;6.038;2023-02-18T07:41:19;7.82;;;1.95;;
59418;SDS011;45224;50.904;6.038;2023-02-18T07:42:52;6.80;;;2.45;;
59418;SDS011;45224;50.904;6.038;2023-02-18T07:44:22;7.45;;;2.80;;
59418;SDS011;45224;50.904;6.038;2023-02-18T07:45:55;6.43;;;2.20;;
59418;SDS011;45224;50.904;6.038;2023-02-18T07:47:26;7.20;;;2.20;;
59418;SDS011;45224;50.904;6.038;2023-02-18T07:48:56;8.77;;;2.20;;
59418;SDS011;45224;50.904;6.038;2023-02-18T07:50:27;5.85;;;1.92;;
59418;SDS011;45224;50.904;6.038;2023-02-18T07:51:58;4.88;;;1.85;;
59418;SDS011;45224;50.904;6.038;2023-02-18T07:53:29;6.38;;;2.10;;
59418;SDS011;45224;50.904;6.038;2023-02-18T07:54:59;5.33;;;2.07;;
59418;SDS011;45224;50.904;6.038;2023-02-18T07:56:30;3.95;;;2.15;;
59418;SDS011;45224;50.904;6.038;2023-02-18T07:58:00;8.13;;;2.37;;
59418;SDS011;45224;50.904;6.038;2023-02-18T07:59:32;7.43;;;2.65;;
59418;SDS011;45224;50.904;6.038;2023-02-18T08:01:03;6.27;;;2.40;;
59418;SDS011;45224;50.904;6.038;2023-02-18T08:02:39;8.55;;;2.33;;
59418;SDS011;45224;50.904;6.038;2023-02-18T08:04:09;12.13;;;2.77;;
59418;SDS011;45224;50.904;6.038;2023-02-18T08:05:40;10.83;;;2.67;;
59418;SDS011;45224;50.904;6.038;2023-02-18T08:07:11;11.47;;;2.57;;
59418;SDS011;45224;50.904;6.038;2023-02-18T08:08:43;11.30;;;2.67;;
59418;SDS011;45224;50.904;6.038;2023-02-18T08:10:14;11.47;;;2.90;;
59418;SDS011;45224;50.904;6.038;2023-02-18T08:11:44;6.40;;;2.77;;
59418;SDS011;45224;50.904;6.038;2023-02-18T08:13:15;8.20;;;2.47;;
59418;SDS011;45224;50.904;6.038;2023-02-18T08:14:46;8.77;;;2.85;;
59418;SDS011;45224;50.904;6.038;2023-02-18T08:16:17;9.27;;;2.70;;
59418;SDS011;45224;50.904;6.038;2023-02-18T08:17:49;9.30;;;2.88;;
59418;SDS011;45224;50.904;6.038;2023-02-18T08:19:20;9.73;;;2.37;;
59418;SDS011;45224;50.904;6.038;2023-02-18T08:20:50;8.23;;;2.40;;
59418;SDS011;45224;50.904;6.038;2023-02-18T08:22:21;7.43;;;2.45;;
59418;SDS011;45224;50.904;6.038;2023-02-18T08:23:52;13.20;;;2.63;;
59418;SDS011;45224;50.904;6.038;2023-02-18T08:25:22;11.18;;;2.70;;
59418;SDS011;45224;50.904;6.038;2023-02-18T08:26:53;8.43;;;2.53;;
59418;SDS011;45224;50.904;6.038;2023-02-18T08:28:24;10.07;;;2.67;;
59418;SDS011;45224;50.904;6.038;2023-02-18T08:29:54;8.75;;;2.47;;
59418;SDS011;45224;50.904;6.038;2023-02-18T08:31:26;9.87;;;2.80;;
59418;SDS011;45224;50.904;6.038;2023-02-18T08:32:58;9.13;;;2.78;;
59418;SDS011;45224;50.904;6.038;2023-02-18T08:34:29;10.03;;;2.73;;
59418;SDS011;45224;50.904;6.038;2023-02-18T08:35:59;12.13;;;3.00;;
59418;SDS011;45224;50.904;6.038;2023-02-18T08:37:30;4.90;;;2.63;;
59418;SDS011;45224;50.904;6.038;2023-02-18T08:39:00;8.60;;;2.47;;
59418;SDS011;45224;50.904;6.038;2023-02-18T08:40:32;7.88;;;2.85;;
59418;SDS011;45224;50.904;6.038;2023-02-18T08:42:02;10.67;;;3.10;;
59418;SDS011;45224;50.904;6.038;2023-02-18T08:43:34;11.30;;;2.70;;
59418;SDS011;45224;50.904;6.038;2023-02-18T08:45:05;8.15;;;2.47;;
59418;SDS011;45224;50.904;6.038;2023-02-18T08:48:07;10.38;;;2.38;;
59418;SDS011;45224;50.904;6.038;2023-02-18T08:49:39;8.80;;;2.00;;
59418;SDS011;45224;50.904;6.038;2023-02-18T08:51:14;9.43;;;2.37;;
59418;SDS011;45224;50.904;6.038;2023-02-18T08:52:47;9.77;;;2.20;;
59418;SDS011;45224;50.904;6.038;2023-02-18T08:54:17;8.97;;;2.90;;
59418;SDS011;45224;50.904;6.038;2023-02-18T08:55:48;6.65;;;2.30;;
59418;SDS011;45224;50.904;6.038;2023-02-18T08:57:19;8.73;;;2.73;;
59418;SDS011;45224;50.904;6.038;2023-02-18T08:58:49;7.17;;;2.43;;
59418;SDS011;45224;50.904;6.038;2023-02-18T09:00:20;7.83;;;2.47;;
59418;SDS011;45224;50.904;6.038;2023-02-18T09:01:51;6.97;;;2.97;;
59418;SDS011;45224;50.904;6.038;2023-02-18T09:03:22;8.73;;;2.72;;
59418;SDS011;45224;50.904;6.038;2023-02-18T09:04:52;8.25;;;2.45;;
59418;SDS011;45224;50.904;6.038;2023-02-18T09:06:23;9.27;;;3.20;;
59418;SDS011;45224;50.904;6.038;2023-02-18T09:07:53;13.40;;;3.03;;
59418;SDS011;45224;50.904;6.038;2023-02-18T09:09:24;9.57;;;3.05;;
59418;SDS011;45224;50.904;6.038;2023-02-18T09:10:58;8.00;;;2.87;;
59418;SDS011;45224;50.904;6.038;2023-02-18T09:12:33;9.25;;;2.75;;
59418;SDS011;45224;50.904;6.038;2023-02-18T09:14:04;11.55;;;3.13;;
59418;SDS011;45224;50.904;6.038;2023-02-18T09:15:34;7.83;;;2.40;;
59418;SDS011;45224;50.904;6.038;2023-02-18T09:17:05;11.25;;;2.75;;
59418;SDS011;45224;50.904;6.038;2023-02-18T09:18:36;9.05;;;2.08;;
59418;SDS011;45224;50.904;6.038;2023-02-18T09:20:06;14.77;;;2.70;;
59418;SDS011;45224;50.904;6.038;2023-02-18T09:21:38;17.08;;;3.20;;
59418;SDS011;45224;50.904;6.038;2023-02-18T09:23:08;9.53;;;2.60;;
59418;SDS011;45224;50.904;6.038;2023-02-18T09:24:39;9.43;;;2.53;;
59418;SDS011;45224;50.904;6.038;2023-02-18T09:26:12;7.60;;;2.35;;
59418;SDS011;45224;50.904;6.038;2023-02-18T09:27:44;12.63;;;2.63;;
59418;SDS011;45224;50.904;6.038;2023-02-18T09:29:14;7.93;;;2.40;;
59418;SDS011;45224;50.904;6.038;2023-02-18T09:30:45;11.93;;;2.60;;
59418;SDS011;45224;50.904;6.038;2023-02-18T09:32:16;11.13;;;3.00;;
59418;SDS011;45224;50.904;6.038;2023-02-18T09:33:51;9.57;;;2.22;;
59418;SDS011;45224;50.904;6.038;2023-02-18T09:35:25;17.23;;;3.83;;
59418;SDS011;45224;50.904;6.038;2023-02-18T09:36:55;9.47;;;2.57;;
59418;SDS011;45224;50.904;6.038;2023-02-18T09:38:26;9.90;;;2.27;;
59418;SDS011;45224;50.904;6.038;2023-02-18T09:39:56;9.57;;;2.30;;
59418;SDS011;45224;50.904;6.038;2023-02-18T09:41:46;17.73;;;3.50;;
59418;SDS011;45224;50.904;6.038;2023-02-18T09:43:29;8.48;;;2.35;;
59418;SDS011;45224;50.904;6.038;2023-02-18T09:45:05;10.15;;;2.63;;
59418;SDS011;45224;50.904;6.038;2023-02-18T09:46:47;7.93;;;2.80;;
59418;SDS011;45224;50.904;6.038;2023-02-18T09:48:24;11.95;;;3.00;;
59418;SDS011;45224;50.904;6.038;2023-02-18T09:49:58;10.85;;;3.38;;
59418;SDS011;45224;50.904;6.038;2023-02-18T09:51:35;7.53;;;2.65;;
59418;SDS011;45224;50.904;6.038;2023-02-18T09:53:06;9.53;;;2.60;;
59418;SDS011;45224;50.904;6.038;2023-02-18T09:54:41;7.97;;;2.50;;
59418;SDS011;45224;50.904;6.038;2023-02-18T09:56:13;10.18;;;2.53;;
59418;SDS011;45224;50.904;6.038;2023-02-18T09:57:48;20.58;;;3.17;;
59418;SDS011;45224;50.904;6.038;2023-02-18T09:59:21;9.90;;;2.58;;